Current Weather

Al Kharj

Al Kharj, Saudi Arabia (OEKJ)

Report from: Monday, June 17, 2024 11:00 AM UTC
Current time: Monday, June 17, 2024 11:42 AM UTC

Nearby weather – Weather history – Daily summaries
Weather forecast

Temperature43.0°C (109.4°F)
Heat index39.1°C (102.4°F)
Dew point-2.0°C (28.4°F)
Winds 12 kts (6.2 m/s, 13.8 mph) North (10°)
Clouds Sky clear
Altimeter29.74 in.Hg (1007 mB)
Relative humidity6 %
Density altitude3,423 ft. (1,043 m)
Remarks Ceiling and visibility OK
Flight conditions Visual Meteorological Conditions
Raw dataOEKJ 171100Z 01012KT CAVOK 43/M02 Q1007
An error has occurred. This application may no longer respond until reloaded. Reload 🗙